Date,TemperatureHighF,TemperatureAvgF,TemperatureLowF,DewpointHighF,DewpointAvgF,DewpointLowF,HumidityHigh,HumidityAvg,HumidityLow,PressureMaxIn,PressureMinIn,WindSpeedMaxMPH,WindSpeedAvgMPH,GustSpeedMaxMPH,PrecipitationSumIn
2012-5-11,81.2,69.8,62.7,69.2,63.4,60.4,95,81,58,29.87,29.70,13,1,15,0.13
2012-5-12,80.5,70.1,60.9,64.1,60.5,57.2,93,73,46,30.07,29.88,13,3,17,0.00
2012-5-13,84.7,71.7,59.9,61.8,57.6,53.8,92,64,37,30.10,29.96,11,2,16,0.00
2012-5-14,81.2,73.6,60.9,65.4,56.3,51.9,88,57,40,30.02,28.76,6,0,12,0.00
2012-5-17,75.1,71.4,67.6,54.8,53.0,51.3,63,53,45,28.78,28.77,0,0,0,0.00
2012-5-18,88.4,73.3,61.5,59.2,53.5,48.9,75,52,30,28.81,28.71,11,0,12,0.00
2012-5-19,86.1,76.9,66.1,59.6,56.7,53.7,73,51,37,28.84,28.73,12,1,12,0.00
2012-5-20,83.6,83.6,83.6,57.4,57.4,57.4,41,41,41,28.77,28.77,3,3,4,0.00
2012-5-21,84.0,74.4,60.2,60.7,52.1,40.4,83,48,27,29.03,28.77,9,1,9,0.00
2012-5-22,84.0,66.4,50.1,47.5,44.3,41.2,75,48,25,28.94,28.70,3,0,7,0.00
2012-5-23,88.6,74.3,61.2,62.5,54.9,43.4,64,51,39,28.70,28.46,13,1,13,0.00
2012-5-24,85.7,75.9,69.4,65.8,63.3,59.7,75,65,49,28.60,28.42,16,1,16,0.00
2012-5-25,88.6,78.2,71.8,68.4,65.8,63.8,81,67,47,28.77,28.60,9,0,9,0.00
2012-5-26,77.9,74.4,71.5,67.7,66.4,65.7,85,76,67,28.86,28.77,9,0,9,0.00
2012-5-27,93.8,81.6,71.1,63.9,56.9,48.4,74,46,23,28.85,28.70,15,1,17,0.00
2012-5-28,95.1,81.6,73.2,64.5,61.3,57.6,64,51,32,28.75,28.65,16,1,16,0.00
2012-5-29,90.1,72.4,64.7,69.6,64.3,60.1,94,78,40,28.76,28.66,18,0,18,0.52
2012-5-31,75.1,67.0,57.2,64.9,57.7,48.3,95,73,56,28.80,28.65,7,0,7,0.49
2012-6-1,72.0,57.3,49.1,55.4,49.9,45.7,92,78,42,28.87,28.78,9,0,9,0.02
2012-6-2,85.9,70.0,56.6,62.3,55.1,50.5,87,62,34,28.79,28.70,10,0,10,0.00
2012-6-3,87.0,72.0,66.9,72.6,64.5,57.6,94,78,57,28.77,28.68,16,0,16,0.81
2012-6-4,87.0,76.1,65.8,70.8,67.3,63.5,95,76,54,29.80,29.71,1,0,6,0.42
2012-6-5,81.1,71.9,68.8,69.6,66.5,64.8,89,83,63,29.79,29.71,4,0,4,0.00
2012-6-6,83.8,75.6,64.5,60.7,56.3,49.8,78,52,33,29.91,29.83,6,0,6,0.00
2012-6-7,81.6,68.6,59.5,59.0,53.9,50.0,83,61,38,30.00,29.89,6,0,6,0.00
2012-6-8,84.0,67.4,58.0,57.9,52.3,40.4,81,61,23,30.01,29.88,6,0,6,0.00
2012-6-9,87.4,74.8,62.9,67.8,59.8,53.9,81,61,42,29.85,29.68,5,0,12,0.00
2012-6-10,86.5,75.4,68.1,69.8,65.4,58.8,89,72,50,29.74,29.67,10,0,10,0.00
2012-6-11,80.3,75.4,72.3,71.2,68.0,65.0,86,78,71,29.91,29.69,1,0,5,0.01
2012-6-12,89.3,74.4,65.3,68.6,58.5,47.2,93,62,27,30.06,29.90,7,0,7,0.00
2012-6-13,80.7,71.0,60.5,65.1,58.3,50.7,75,64,50,30.00,29.88,7,0,9,0.00
2012-6-14,91.8,76.0,61.0,66.2,59.9,54.1,81,60,35,29.93,29.74,9,0,9,0.00
2012-6-15,84.5,76.7,67.6,67.8,64.3,60.4,80,66,50,29.94,29.82,9,0,9,0.00
2012-6-16,94.0,78.7,66.3,67.6,63.5,59.9,81,62,36,30.00,29.89,11,0,11,0.00
2012-6-17,91.8,79.4,70.6,68.9,64.3,62.0,76,61,42,29.96,29.74,12,0,12,0.00
2012-6-18,94.3,80.6,70.8,65.7,62.3,55.0,82,56,30,29.78,29.70,17,1,17,0.00
2012-6-19,92.1,79.7,71.8,67.1,65.6,62.8,81,64,43,29.86,29.74,15,1,15,0.00
2012-6-20,89.9,79.3,72.1,66.5,63.1,58.3,81,60,36,29.93,29.83,13,0,13,0.00
2012-6-21,85.5,75.0,67.6,70.9,63.9,56.0,94,69,53,30.04,29.88,5,0,5,0.19
2012-6-22,93.8,78.9,68.4,67.7,62.4,52.3,91,62,28,29.94,29.80,5,0,5,0.00
2012-6-23,97.5,82.9,72.1,66.7,62.5,55.7,77,54,28,29.87,29.77,12,0,12,0.00
2012-6-24,99.7,93.3,85.5,63.9,61.2,56.4,45,35,27,29.89,29.80,9,0,9,0.00
2012-6-25,104.9,88.7,76.0,66.2,63.2,58.8,68,45,25,29.84,29.69,1,0,9,0.00
2012-6-26,102.8,87.2,75.8,68.7,64.9,55.2,73,50,28,29.77,29.68,1,0,7,0.00
2012-6-27,105.1,88.4,71.5,54.1,45.5,37.1,42,24,13,29.86,29.74,10,0,10,0.00
2012-6-28,105.1,88.7,76.8,59.5,52.4,43.7,42,30,17,29.93,29.84,14,1,14,0.00
2012-6-29,102.3,88.4,78.3,64.5,58.9,52.4,56,39,22,29.90,29.74,12,1,12,0.00
2012-6-30,102.3,88.4,76.8,65.2,58.8,52.2,59,39,22,29.83,29.73,14,1,14,0.00
2012-7-1,100.7,86.3,76.5,66.2,61.2,55.4,66,45,25,29.92,29.81,12,0,12,0.00
2012-7-2,94.9,83.1,73.9,67.1,64.0,59.3,72,54,33,29.97,29.86,16,1,16,0.00
2012-7-3,101.0,85.8,74.9,67.1,58.7,46.6,75,45,17,29.94,29.79,13,1,13,0.00
2012-7-4,102.3,85.7,76.0,66.9,59.7,50.5,68,45,20,29.92,29.80,13,1,13,0.00
2012-7-10,91.2,82.6,73.7,65.9,63.0,58.3,74,53,34,29.87,29.80,6,0,6,0.00
2012-7-11,91.6,78.7,68.8,68.2,64.0,58.8,87,63,37,29.92,29.82,6,0,6,0.00
2012-7-12,94.9,80.2,69.8,67.8,62.9,55.3,83,59,29,29.91,29.82,7,0,7,0.00
2012-7-13,97.3,81.1,69.9,70.3,63.8,52.6,90,60,25,29.94,29.84,6,0,6,0.00
2012-7-14,88.0,74.7,68.4,69.4,66.0,62.5,85,75,50,29.96,29.87,6,0,6,0.00
2012-7-15,90.7,77.3,67.1,70.0,66.0,63.7,92,71,43,30.00,29.86,9,0,9,0.00
2012-7-16,85.3,75.4,72.3,70.2,67.8,64.8,87,78,53,29.94,29.90,11,0,11,0.00
2012-7-21,100.2,99.1,97.8,57.7,57.1,54.7,26,25,24,29.84,29.84,3,1,4,0.00
2012-7-22,99.9,82.7,70.3,68.3,62.2,56.7,80,54,26,29.98,29.87,5,0,9,0.00
2012-7-23,100.2,86.1,76.7,70.8,65.5,58.8,77,53,27,30.01,29.89,2,0,11,0.00
2012-7-24,97.5,85.7,76.0,69.1,65.3,61.7,78,53,33,29.96,29.80,2,0,11,0.00
2012-7-25,101.7,89.4,77.6,68.4,64.1,59.2,71,46,27,29.83,29.67,14,1,14,0.00
2012-7-26,101.5,80.5,70.9,70.2,68.0,63.8,93,69,31,29.85,29.66,5,1,18,0.47
2012-7-27,99.2,83.5,69.4,73.3,66.7,55.2,94,63,25,29.93,29.81,9,0,9,0.03
2012-7-28,104.6,87.2,75.6,68.6,63.9,55.8,76,49,21,29.98,29.88,1,0,9,0.00
2012-7-29,106.0,90.2,78.6,67.5,60.7,48.1,65,41,18,29.94,29.79,3,0,14,0.00
2012-7-30,106.8,91.5,81.4,63.5,59.2,54.7,54,36,20,29.85,29.74,2,1,14,0.00
2012-7-31,105.7,90.6,81.8,62.7,59.4,56.0,51,36,21,29.86,29.75,11,0,11,0.00
2012-8-1,103.3,89.6,79.9,67.8,62.9,58.9,59,42,27,29.82,29.66,2,0,11,0.00
2012-8-2,104.4,91.3,82.2,67.9,64.8,61.7,55,43,27,29.73,29.63,13,1,13,0.00
2012-8-5,92.7,85.1,78.1,68.9,66.3,63.9,69,54,42,30.01,29.95,4,0,4,0.33
2012-8-6,100.4,83.7,72.8,70.4,63.4,50.6,81,55,23,30.01,29.86,5,0,5,0.00
2012-8-7,105.4,85.2,73.9,70.2,63.6,50.7,84,53,21,29.90,29.78,7,0,7,0.00
2012-8-8,91.2,79.1,70.1,69.4,64.7,59.6,89,62,44,29.95,29.80,10,0,10,0.13
2012-8-9,91.4,83.7,77.9,65.2,63.0,61.5,60,50,40,29.78,29.74,4,0,4,0.01
2012-8-10,94.0,77.7,67.8,63.6,54.2,43.7,81,49,21,29.89,29.78,9,0,9,0.00
2012-8-11,93.2,75.3,61.3,53.2,49.5,42.4,72,44,19,29.98,29.83,5,0,5,0.00
2012-8-12,94.0,80.1,68.1,68.3,57.1,50.2,68,46,27,29.90,29.75,5,0,13,0.20
2012-8-13,78.6,71.8,67.6,69.4,68.1,64.7,91,88,73,29.84,29.76,10,0,10,0.10
2012-8-14,79.6,72.1,62.4,61.0,58.8,54.6,88,64,45,29.97,29.83,5,0,5,0.00
2012-8-15,95.4,79.4,66.6,65.8,61.2,56.7,77,56,34,29.88,29.75,11,0,11,0.00
2012-8-16,99.0,81.2,69.3,70.9,66.5,59.4,92,64,28,29.92,29.74,12,1,12,0.83
2012-8-17,80.3,71.5,65.0,67.8,64.0,58.0,95,79,53,29.97,29.86,5,0,5,0.00
2012-8-18,81.1,70.7,64.3,67.4,62.5,56.4,88,76,44,29.92,29.77,14,0,14,0.00
2012-8-19,86.3,70.5,65.0,68.1,64.3,57.7,94,82,41,29.89,29.79,6,0,6,0.00
2012-8-20,87.6,71.2,59.5,60.7,51.9,41.3,91,56,25,29.96,29.86,3,0,5,0.01
2012-8-21,90.3,74.4,64.3,56.3,50.8,40.9,68,46,22,29.99,29.92,6,0,6,0.00
2012-8-22,92.5,78.5,67.1,61.5,54.1,44.5,77,46,21,30.05,29.91,12,0,12,0.00
2012-8-23,89.0,76.8,69.4,55.0,50.5,46.5,56,41,26,30.03,29.90,11,0,11,0.00
2012-8-24,91.2,75.5,63.4,63.7,56.8,50.8,68,54,30,29.94,29.80,11,0,11,0.00
2012-8-25,86.1,77.9,72.5,70.3,67.1,63.6,84,70,55,29.86,29.77,12,0,12,0.00
2012-8-26,81.4,75.4,71.1,75.5,69.0,64.9,94,81,68,29.95,29.81,10,0,10,2.36
2012-8-27,86.1,74.1,70.4,74.9,70.7,68.6,96,89,63,30.00,29.91,5,0,5,0.37
2012-8-28,84.0,76.7,73.0,59.0,57.3,55.5,59,52,38,29.91,29.88,2,0,2,0.00
2012-8-29,91.0,73.5,62.9,59.3,56.6,49.4,81,59,26,29.93,29.80,7,0,7,0.00
2012-8-30,91.4,77.2,67.3,66.9,61.0,52.1,78,59,39,29.83,29.70,4,0,11,0.00
2012-8-31,74.6,72.5,70.6,73.1,70.2,66.5,95,92,77,29.80,29.57,13,1,13,0.63
2012-9-5,94.0,84.7,77.0,72.8,68.1,63.7,71,58,41,29.77,29.70,5,0,5,0.00
2012-9-6,98.7,82.4,73.3,75.4,66.8,61.7,73,60,38,29.82,29.73,15,0,15,0.00
2012-9-7,90.5,77.6,73.3,69.7,66.0,63.1,77,68,45,29.80,29.74,9,0,9,0.00
2012-9-8,66.0,62.1,59.6,50.8,49.6,48.8,68,64,58,30.03,30.00,0,0,0,0.00
2012-9-9,84.9,67.5,57.3,60.3,51.5,46.9,75,58,34,30.07,29.97,12,0,12,0.00
2012-9-10,83.8,67.6,55.0,59.7,53.3,46.9,87,63,32,30.09,29.98,6,0,6,0.00
2012-9-11,88.2,72.2,61.8,60.9,55.6,48.8,78,59,30,30.06,29.94,10,0,10,0.00
2012-9-12,83.0,69.4,63.5,61.3,57.4,55.2,79,67,43,30.06,29.96,7,0,7,0.00
2012-9-13,84.5,74.3,64.2,67.7,63.4,59.3,87,70,45,30.12,29.98,4,0,15,0.00
2012-9-14,66.3,62.3,60.9,61.7,58.7,56.7,95,88,81,30.17,30.07,4,0,4,0.62
2012-9-15,69.1,65.9,63.2,68.0,65.0,62.0,97,97,96,30.13,30.00,4,0,4,0.26
2012-9-16,65.8,65.6,65.6,64.9,64.7,64.7,97,97,97,30.00,29.97,1,0,1,0.00
2012-9-17,75.1,68.1,63.5,66.9,63.6,60.5,95,86,71,29.87,29.74,1,0,3,0.01
2012-9-18,70.8,59.9,53.9,61.3,49.4,43.8,91,70,41,30.02,29.78,6,0,6,0.01
2012-9-19,79.0,65.8,53.2,50.2,46.9,41.0,75,52,31,30.08,29.94,10,0,10,0.00
2012-9-20,83.4,70.6,63.4,62.8,54.1,47.9,78,56,35,29.97,29.86,12,1,12,0.00
2012-9-21,80.5,69.7,65.0,64.7,57.4,54.4,78,66,49,29.89,29.81,13,1,13,0.01
2012-9-22,84.0,68.5,59.8,54.2,48.2,42.4,66,50,28,30.11,29.87,0,0,6,0.00
2012-9-23,74.4,62.1,53.6,52.4,43.5,36.3,76,51,37,30.23,30.09,1,0,5,0.01
2012-9-24,77.4,66.8,56.7,60.6,52.5,42.0,71,61,47,30.12,29.85,4,0,13,0.00
2012-9-25,90.7,77.2,69.9,63.0,59.0,45.9,75,57,25,29.88,29.76,19,1,19,0.00
2012-9-26,76.1,72.2,67.1,68.4,64.6,60.8,91,78,61,29.96,29.79,2,0,11,0.02
2012-9-27,80.3,68.1,64.2,66.8,63.2,61.2,93,85,58,30.06,29.96,5,0,5,0.00
2012-9-28,81.2,70.5,65.0,66.4,63.6,61.9,92,80,56,30.03,29.92,1,0,5,0.00
2012-9-29,70.9,67.1,62.9,65.3,62.4,57.7,95,85,77,29.98,29.88,5,0,5,0.00
2012-9-30,66.1,62.5,59.0,57.7,54.6,51.7,83,75,67,29.90,29.76,2,0,4,0.00
2012-10-1,79.0,64.2,58.1,55.7,52.3,48.7,78,67,38,29.76,29.66,7,0,7,0.00
2012-10-2,76.0,62.1,52.6,54.3,48.4,45.4,86,63,36,29.88,29.74,1,0,6,0.00
2012-10-3,78.3,65.2,55.6,53.6,49.4,45.9,71,58,37,29.97,29.85,2,0,13,0.00
2012-10-4,84.1,69.8,59.8,58.7,54.8,52.0,79,61,35,30.10,29.96,2,0,10,0.00
2012-10-5,69.1,56.2,45.8,58.5,50.8,43.5,93,83,61,30.11,29.98,8,0,10,0.30
2012-10-6,47.6,41.8,37.9,38.4,36.6,33.9,91,82,62,30.26,30.15,1,0,5,0.04
2012-10-7,54.2,44.1,35.3,37.4,35.0,31.2,89,72,45,30.28,30.15,1,0,9,0.00
2012-10-8,62.0,48.7,37.3,41.4,37.9,34.0,91,68,43,30.20,30.02,10,0,10,0.00
2012-10-9,63.7,53.2,42.2,53.2,45.5,37.5,87,76,59,30.03,29.84,12,0,12,0.00
2012-10-10,68.8,55.8,45.7,52.1,42.1,32.7,91,64,34,30.21,29.99,5,0,5,0.00
2012-10-11,64.8,58.0,56.7,60.2,42.0,38.3,85,56,48,30.09,30.05,4,0,4,0.00
2012-10-12,67.4,64.3,61.2,63.7,60.9,58.3,95,89,82,30.20,30.00,7,0,7,1.52
2012-10-13,75.1,66.5,62.6,65.0,62.5,60.3,94,87,70,30.04,29.80,15,0,15,0.00
2012-10-14,70.4,62.2,57.5,61.5,57.8,54.0,94,86,60,29.91,29.63,9,1,16,0.04
2012-10-15,77.6,63.9,52.5,53.8,48.0,44.9,79,58,34,30.01,29.85,5,0,11,0.06
2012-10-16,78.5,66.0,59.2,48.7,44.2,37.1,66,47,25,29.85,29.57,14,0,14,0.00
2012-10-17,70.4,61.7,51.3,62.3,55.1,42.8,86,79,67,29.69,29.41,12,0,12,0.00
2012-10-18,64.8,54.2,46.1,42.8,32.8,23.6,75,48,23,29.81,29.69,20,1,20,0.00
2012-10-19,63.2,54.0,47.4,41.1,33.0,25.0,58,45,31,29.78,29.69,16,1,16,0.00
2012-10-20,78.8,64.7,47.6,52.8,43.5,31.8,71,47,32,29.84,29.70,12,0,12,0.00
2012-10-21,80.3,69.7,63.4,67.9,59.6,47.2,80,71,51,29.81,29.72,14,0,14,0.00
2012-10-22,74.9,70.5,67.4,64.9,63.8,62.4,87,80,69,29.87,29.78,12,1,12,0.04
2012-10-23,76.8,69.9,65.6,64.1,61.5,59.3,89,75,60,29.86,29.78,18,0,18,0.01
2012-10-24,83.0,69.2,63.7,64.7,60.8,59.0,88,75,54,29.89,29.72,14,1,18,0.00
2012-10-25,71.8,59.2,42.6,63.7,54.2,39.0,92,84,72,30.09,29.69,16,1,16,0.09
2012-10-26,55.0,43.5,36.5,39.0,34.5,29.4,87,71,48,30.30,30.08,11,1,11,0.00
2012-10-27,36.3,33.2,30.1,29.8,28.5,26.7,89,83,76,30.30,30.23,8,0,8,0.00
2012-10-28,58.9,44.9,30.7,36.4,30.5,26.2,87,59,35,30.27,30.17,6,0,6,0.00
2012-10-29,63.2,43.1,33.7,36.2,29.3,22.4,82,62,26,30.29,30.14,5,0,5,0.00
2012-10-30,63.5,52.4,42.6,44.0,34.3,28.4,65,51,35,30.08,29.86,2,0,10,0.00
2012-10-31,70.8,54.1,44.8,41.9,37.5,33.2,74,55,31,29.99,29.87,1,0,5,0.00
2012-11-1,77.2,59.0,46.1,44.4,39.4,36.2,71,51,25,29.99,29.86,9,0,9,0.00
2012-11-2,82.6,63.1,55.4,54.9,47.8,43.7,76,59,33,29.89,29.80,12,0,12,0.00
2012-11-3,67.1,60.0,48.3,53.7,44.7,36.0,72,58,39,30.10,29.81,2,0,13,0.00
2012-11-4,70.3,51.7,39.8,41.4,37.5,33.7,88,60,27,30.14,30.00,2,0,6,0.00
2012-11-5,63.9,52.5,45.1,49.2,42.7,39.3,84,70,48,30.01,29.90,13,1,13,0.00
2012-11-6,62.0,48.8,43.1,43.0,39.5,37.5,84,72,45,30.06,29.95,11,0,11,0.00
2012-11-7,62.0,44.3,37.5,37.2,31.9,28.4,74,63,37,30.12,30.01,6,0,6,0.00
2012-11-8,70.9,57.3,39.1,41.9,36.5,29.3,77,48,27,30.09,29.91,15,1,15,0.00
2012-11-9,75.8,63.4,55.1,57.3,51.9,41.9,81,67,51,29.96,29.82,14,2,14,0.00
2012-11-10,75.4,65.2,58.4,55.0,52.3,48.1,78,64,40,29.94,29.73,25,2,25,0.00
2012-11-11,66.4,62.0,49.9,58.6,54.5,47.1,92,77,70,29.85,29.71,18,2,18,0.34
2012-11-12,51.9,37.5,25.1,30.9,25.8,22.0,93,65,37,30.46,30.19,10,0,10,0.04
2012-11-13,58.3,42.6,31.8,27.6,24.2,16.7,77,51,25,30.49,30.32,7,0,7,0.00
2012-11-14,60.2,46.9,34.3,29.5,25.9,20.1,69,47,26,30.40,30.27,6,0,6,0.00
2012-11-15,63.2,45.6,37.2,32.8,28.4,25.5,68,53,27,30.31,30.23,1,0,5,0.00
2012-11-16,64.5,46.9,37.9,33.5,30.9,27.2,75,56,27,30.39,30.30,1,0,6,0.00
2012-11-17,66.4,47.2,34.7,30.9,28.0,23.9,79,52,22,30.39,30.27,3,0,11,0.00
2012-11-18,67.6,56.0,37.8,28.9,25.9,21.7,65,35,19,30.28,30.16,13,1,13,0.00
2012-11-19,61.8,54.9,47.1,45.5,42.5,34.1,85,64,48,30.18,30.06,12,1,13,0.05
2012-11-20,73.3,57.9,48.5,51.2,44.1,39.9,77,62,34,30.15,30.06,10,1,10,0.00
2012-11-21,75.1,53.7,42.5,42.5,37.5,29.1,90,62,19,30.22,30.08,5,0,9,0.00
2012-11-22,69.3,60.3,51.9,49.3,44.1,37.6,73,56,38,30.07,29.92,17,2,17,0.00
2012-11-23,57.8,42.7,28.8,49.6,27.5,19.2,74,56,35,30.40,30.07,14,2,14,0.00
2012-11-24,56.7,37.2,24.7,19.2,16.6,8.3,74,48,20,30.38,30.09,6,1,6,0.00
2012-11-25,66.1,50.8,41.1,37.8,29.8,19.5,70,46,27,30.00,29.80,4,2,14,0.00
2012-11-26,56.3,45.4,35.3,50.8,39.4,28.0,89,80,69,30.27,29.83,11,1,11,0.03
2012-11-27,50.2,36.1,26.7,31.5,26.4,19.4,87,70,33,30.42,30.26,5,0,5,0.00
2012-11-28,60.7,45.4,32.2,32.7,29.2,25.4,81,56,28,30.40,30.17,10,1,10,0.00
2012-11-29,65.5,51.9,43.6,34.1,29.9,24.4,61,44,25,30.18,30.02,16,2,16,0.00
2012-11-30,66.0,53.2,49.1,50.1,38.1,29.3,65,57,43,30.08,30.00,14,2,14,0.00
2012-12-1,71.5,64.3,56.3,58.5,56.4,52.5,89,76,61,29.98,29.81,21,3,21,0.00
2012-12-2,76.0,67.0,63.9,60.1,58.6,55.1,84,75,52,29.97,29.86,23,2,23,0.00
2012-12-3,76.3,66.4,61.5,57.6,55.5,50.1,83,70,42,29.89,29.77,9,3,23,0.00
2012-12-4,64.2,53.8,41.5,58.6,43.3,33.8,93,70,40,30.26,29.84,9,1,15,1.05
2012-12-5,64.2,45.8,34.1,35.5,32.1,26.0,86,63,27,30.29,30.01,10,0,10,0.00
2012-12-6,67.3,50.8,39.5,48.1,42.3,32.8,89,74,43,30.02,29.78,8,0,8,0.00
2012-12-7,57.8,53.4,49.1,51.4,48.9,45.1,91,85,78,29.82,29.73,9,0,9,0.00
2012-12-8,63.2,55.5,52.0,53.0,49.2,44.4,93,80,55,29.84,29.73,6,0,6,0.00
2012-12-9,56.6,49.1,30.1,54.0,45.3,21.2,93,87,69,29.97,29.66,4,2,13,0.07
2012-12-10,35.6,27.3,21.1,23.3,18.4,15.6,80,69,55,30.10,29.94,4,2,14,0.00
2012-12-11,47.3,32.8,20.6,19.0,13.4,8.5,82,49,23,30.18,30.07,5,1,10,0.00
2012-12-12,52.8,38.0,31.3,19.0,13.8,8.3,54,38,18,30.29,30.18,9,1,13,0.07
2012-12-13,59.2,45.6,37.5,22.9,18.4,13.6,42,34,23,30.24,30.11,16,2,16,0.00
2012-12-14,54.5,47.3,42.2,43.2,25.3,17.5,81,45,26,30.12,29.73,17,1,17,0.07
2012-12-15,60.7,53.4,48.2,48.2,40.2,32.4,92,64,38,29.73,29.64,21,3,21,0.01
2012-12-16,66.6,55.0,49.4,36.7,33.5,31.0,59,45,28,29.69,29.53,14,1,14,0.00
2012-12-17,46.2,40.6,38.5,39.1,36.4,32.8,93,85,68,29.75,29.61,8,2,11,0.00
2012-12-18,63.2,50.4,41.2,34.6,32.8,28.9,72,53,31,29.79,29.68,18,1,18,0.00
2012-12-19,62.1,53.6,41.3,55.1,46.1,33.0,81,76,71,29.77,29.53,16,2,16,0.00
2012-12-20,54.8,34.7,27.3,50.0,22.7,14.0,84,62,46,30.28,29.38,17,5,29,0.00
2012-12-21,52.8,35.3,23.3,22.2,16.9,12.3,74,50,22,30.37,30.22,7,1,9,0.00
2012-12-22,60.7,47.8,41.8,18.1,14.1,7.9,34,27,14,30.22,29.99,17,2,17,0.00
2012-12-23,63.4,53.4,42.6,48.5,42.6,32.0,82,67,48,29.92,29.71,11,1,16,0.00
2012-12-24,47.1,36.4,26.7,35.8,27.9,23.4,88,72,48,29.97,29.77,3,1,10,0.00
2012-12-25,30.9,27.8,25.0,24.3,20.9,18.3,82,75,69,29.98,29.86,16,3,16,0.00
2012-12-26,37.2,25.6,18.4,21.5,17.2,12.7,80,71,51,30.17,29.98,14,2,14,0.00
2012-12-27,39.9,29.6,21.1,25.0,20.6,16.5,85,70,48,30.09,29.92,14,1,14,0.00
2012-12-28,36.8,31.9,23.0,32.2,27.8,16.3,90,85,73,30.04,29.86,4,1,13,0.00
2012-12-29,33.4,24.4,16.7,22.0,16.5,11.9,84,72,60,30.37,30.05,9,2,10,0.06
2012-12-30,40.5,32.4,24.7,22.0,17.7,15.1,68,55,39,30.42,30.18,3,1,16,0.00
2012-12-31,37.3,35.0,32.7,35.7,32.0,21.5,94,89,56,30.19,29.95,3,0,13,0.76
2013-1-1,36.6,32.8,27.3,35.0,31.5,25.8,95,95,94,30.21,29.99,3,0,7,0.02